sensor_id;sensor_type;location;lat;lon;timestamp;pressure;altitude;pressure_sealevel;temperature
11424;BMP180;5768;51.476;7.210;2022-11-15T00:01:18;99590.00;;;14.70
11424;BMP180;5768;51.476;7.210;2022-11-15T00:06:21;99594.00;;;14.70
11424;BMP180;5768;51.476;7.210;2022-11-15T00:11:24;99596.00;;;14.70
11424;BMP180;5768;51.476;7.210;2022-11-15T00:16:26;99593.00;;;14.80
11424;BMP180;5768;51.476;7.210;2022-11-15T00:21:30;99595.00;;;14.90
11424;BMP180;5768;51.476;7.210;2022-11-15T00:26:32;99591.00;;;15.00
11424;BMP180;5768;51.476;7.210;2022-11-15T00:31:34;99591.00;;;15.00
11424;BMP180;5768;51.476;7.210;2022-11-15T00:36:38;99593.00;;;15.10
11424;BMP180;5768;51.476;7.210;2022-11-15T00:41:40;99589.00;;;15.20
11424;BMP180;5768;51.476;7.210;2022-11-15T00:46:42;99595.00;;;15.20
11424;BMP180;5768;51.476;7.210;2022-11-15T00:51:46;99589.00;;;15.30
11424;BMP180;5768;51.476;7.210;2022-11-15T00:56:48;99585.00;;;15.30
11424;BMP180;5768;51.476;7.210;2022-11-15T01:01:50;99593.00;;;15.40
11424;BMP180;5768;51.476;7.210;2022-11-15T01:06:55;99590.00;;;15.50
11424;BMP180;5768;51.476;7.210;2022-11-15T01:11:57;99591.00;;;15.50
11424;BMP180;5768;51.476;7.210;2022-11-15T01:16:59;99590.00;;;15.50
11424;BMP180;5768;51.476;7.210;2022-11-15T01:22:03;99595.00;;;15.60
11424;BMP180;5768;51.476;7.210;2022-11-15T01:27:05;99599.00;;;15.60
11424;BMP180;5768;51.476;7.210;2022-11-15T01:32:07;99591.00;;;15.70
11424;BMP180;5768;51.476;7.210;2022-11-15T01:37:11;99574.00;;;15.70
11424;BMP180;5768;51.476;7.210;2022-11-15T01:42:14;99569.00;;;15.70
11424;BMP180;5768;51.476;7.210;2022-11-15T01:47:20;99563.00;;;15.70
11424;BMP180;5768;51.476;7.210;2022-11-15T01:52:29;99563.00;;;15.60
11424;BMP180;5768;51.476;7.210;2022-11-15T01:57:32;99561.00;;;15.60
11424;BMP180;5768;51.476;7.210;2022-11-15T02:02:36;99557.00;;;15.70
11424;BMP180;5768;51.476;7.210;2022-11-15T02:07:40;99557.00;;;15.80
11424;BMP180;5768;51.476;7.210;2022-11-15T02:12:43;99550.00;;;15.80
11424;BMP180;5768;51.476;7.210;2022-11-15T02:18:10;99538.00;;;15.80
11424;BMP180;5768;51.476;7.210;2022-11-15T02:23:45;99536.00;;;15.90
11424;BMP180;5768;51.476;7.210;2022-11-15T02:29:01;99549.00;;;15.90
11424;BMP180;5768;51.476;7.210;2022-11-15T02:34:25;99543.00;;;15.90
11424;BMP180;5768;51.476;7.210;2022-11-15T02:39:35;99535.00;;;15.90
11424;BMP180;5768;51.476;7.210;2022-11-15T02:44:44;99526.00;;;15.80
11424;BMP180;5768;51.476;7.210;2022-11-15T02:49:52;99527.00;;;15.70
11424;BMP180;5768;51.476;7.210;2022-11-15T02:54:56;99517.00;;;15.50
11424;BMP180;5768;51.476;7.210;2022-11-15T03:00:09;99528.00;;;15.40
11424;BMP180;5768;51.476;7.210;2022-11-15T03:05:23;99515.00;;;15.50
11424;BMP180;5768;51.476;7.210;2022-11-15T03:10:38;99518.00;;;15.60
11424;BMP180;5768;51.476;7.210;2022-11-15T03:16:08;99527.00;;;15.70
11424;BMP180;5768;51.476;7.210;2022-11-15T03:21:15;99526.00;;;15.80
11424;BMP180;5768;51.476;7.210;2022-11-15T03:26:25;99522.00;;;15.80
11424;BMP180;5768;51.476;7.210;2022-11-15T03:31:33;99537.00;;;15.90
11424;BMP180;5768;51.476;7.210;2022-11-15T03:36:58;99530.00;;;15.90
11424;BMP180;5768;51.476;7.210;2022-11-15T03:42:13;99524.00;;;15.90
11424;BMP180;5768;51.476;7.210;2022-11-15T03:47:24;99525.00;;;16.00
11424;BMP180;5768;51.476;7.210;2022-11-15T03:52:32;99523.00;;;15.90
11424;BMP180;5768;51.476;7.210;2022-11-15T03:57:35;99521.00;;;16.00
11424;BMP180;5768;51.476;7.210;2022-11-15T04:02:38;99506.00;;;16.00
11424;BMP180;5768;51.476;7.210;2022-11-15T04:07:42;99502.00;;;15.90
11424;BMP180;5768;51.476;7.210;2022-11-15T04:12:45;99497.00;;;15.90
11424;BMP180;5768;51.476;7.210;2022-11-15T04:17:51;99498.00;;;16.00
11424;BMP180;5768;51.476;7.210;2022-11-15T04:22:57;99505.00;;;16.00
11424;BMP180;5768;51.476;7.210;2022-11-15T04:28:18;99494.00;;;16.10
11424;BMP180;5768;51.476;7.210;2022-11-15T04:33:21;99511.00;;;16.10
11424;BMP180;5768;51.476;7.210;2022-11-15T04:38:25;99510.00;;;16.10
11424;BMP180;5768;51.476;7.210;2022-11-15T04:43:27;99496.00;;;16.10
11424;BMP180;5768;51.476;7.210;2022-11-15T04:48:30;99488.00;;;16.10
11424;BMP180;5768;51.476;7.210;2022-11-15T04:53:33;99490.00;;;16.10
11424;BMP180;5768;51.476;7.210;2022-11-15T04:58:35;99496.00;;;16.20
11424;BMP180;5768;51.476;7.210;2022-11-15T05:03:38;99498.00;;;16.20
11424;BMP180;5768;51.476;7.210;2022-11-15T05:08:59;99492.00;;;16.20
11424;BMP180;5768;51.476;7.210;2022-11-15T05:14:02;99497.00;;;16.20
11424;BMP180;5768;51.476;7.210;2022-11-15T05:19:04;99493.00;;;16.20
11424;BMP180;5768;51.476;7.210;2022-11-15T05:24:10;99490.00;;;16.20
11424;BMP180;5768;51.476;7.210;2022-11-15T05:29:13;99490.00;;;16.20
11424;BMP180;5768;51.476;7.210;2022-11-15T05:34:16;99496.00;;;16.20
11424;BMP180;5768;51.476;7.210;2022-11-15T05:39:20;99488.00;;;16.20
11424;BMP180;5768;51.476;7.210;2022-11-15T05:44:23;99488.00;;;16.30
11424;BMP180;5768;51.476;7.210;2022-11-15T05:49:31;99480.00;;;16.30
11424;BMP180;5768;51.476;7.210;2022-11-15T05:54:38;99475.00;;;16.30
11424;BMP180;5768;51.476;7.210;2022-11-15T05:59:42;99478.00;;;16.30
11424;BMP180;5768;51.476;7.210;2022-11-15T06:04:44;99482.00;;;16.30
11424;BMP180;5768;51.476;7.210;2022-11-15T06:09:48;99480.00;;;16.30
11424;BMP180;5768;51.476;7.210;2022-11-15T06:14:50;99495.00;;;16.30
11424;BMP180;5768;51.476;7.210;2022-11-15T06:19:52;99491.00;;;16.30
11424;BMP180;5768;51.476;7.210;2022-11-15T06:24:56;99499.00;;;16.30
11424;BMP180;5768;51.476;7.210;2022-11-15T06:29:58;99499.00;;;16.30
11424;BMP180;5768;51.476;7.210;2022-11-15T06:35:00;99514.00;;;16.30
11424;BMP180;5768;51.476;7.210;2022-11-15T06:40:05;99509.00;;;16.30
11424;BMP180;5768;51.476;7.210;2022-11-15T06:45:08;99510.00;;;16.30
11424;BMP180;5768;51.476;7.210;2022-11-15T06:50:10;99511.00;;;16.30
11424;BMP180;5768;51.476;7.210;2022-11-15T06:55:14;99510.00;;;16.30
11424;BMP180;5768;51.476;7.210;2022-11-15T07:00:21;99517.00;;;16.30
11424;BMP180;5768;51.476;7.210;2022-11-15T07:05:23;99526.00;;;16.40
11424;BMP180;5768;51.476;7.210;2022-11-15T07:10:27;99525.00;;;16.40
11424;BMP180;5768;51.476;7.210;2022-11-15T07:15:29;99531.00;;;16.40
11424;BMP180;5768;51.476;7.210;2022-11-15T07:20:31;99539.00;;;16.40
11424;BMP180;5768;51.476;7.210;2022-11-15T07:25:35;99536.00;;;16.30
11424;BMP180;5768;51.476;7.210;2022-11-15T07:30:37;99553.00;;;16.30
11424;BMP180;5768;51.476;7.210;2022-11-15T07:35:39;99566.00;;;16.10
11424;BMP180;5768;51.476;7.210;2022-11-15T07:40:45;99554.00;;;15.90
11424;BMP180;5768;51.476;7.210;2022-11-15T07:45:47;99563.00;;;15.80
11424;BMP180;5768;51.476;7.210;2022-11-15T07:50:49;99557.00;;;15.70
11424;BMP180;5768;51.476;7.210;2022-11-15T07:55:53;99555.00;;;15.60
11424;BMP180;5768;51.476;7.210;2022-11-15T08:00:55;99571.00;;;15.60
11424;BMP180;5768;51.476;7.210;2022-11-15T08:05:58;99575.00;;;15.70
11424;BMP180;5768;51.476;7.210;2022-11-15T08:11:02;99574.00;;;15.70
11424;BMP180;5768;51.476;7.210;2022-11-15T08:16:05;99571.00;;;15.80
11424;BMP180;5768;51.476;7.210;2022-11-15T08:21:09;99568.00;;;15.80
11424;BMP180;5768;51.476;7.210;2022-11-15T08:26:14;99563.00;;;15.90
11424;BMP180;5768;51.476;7.210;2022-11-15T08:31:18;99577.00;;;15.90
11424;BMP180;5768;51.476;7.210;2022-11-15T08:36:20;99565.00;;;16.00
11424;BMP180;5768;51.476;7.210;2022-11-15T08:41:30;99569.00;;;16.10
11424;BMP180;5768;51.476;7.210;2022-11-15T08:46:32;99565.00;;;16.20
11424;BMP180;5768;51.476;7.210;2022-11-15T08:51:34;99570.00;;;16.20
11424;BMP180;5768;51.476;7.210;2022-11-15T08:56:38;99554.00;;;16.30
11424;BMP180;5768;51.476;7.210;2022-11-15T09:01:40;99555.00;;;16.30
11424;BMP180;5768;51.476;7.210;2022-11-15T09:06:42;99550.00;;;16.40
11424;BMP180;5768;51.476;7.210;2022-11-15T09:11:46;99547.00;;;16.40
11424;BMP180;5768;51.476;7.210;2022-11-15T09:16:48;99552.00;;;16.50
11424;BMP180;5768;51.476;7.210;2022-11-15T09:21:50;99548.00;;;16.50
11424;BMP180;5768;51.476;7.210;2022-11-15T09:26:54;99540.00;;;16.50
11424;BMP180;5768;51.476;7.210;2022-11-15T09:31:56;99537.00;;;16.50
11424;BMP180;5768;51.476;7.210;2022-11-15T09:36:58;99527.00;;;16.60
11424;BMP180;5768;51.476;7.210;2022-11-15T09:42:32;99538.00;;;16.60
11424;BMP180;5768;51.476;7.210;2022-11-15T09:48:17;99527.00;;;16.70
11424;BMP180;5768;51.476;7.210;2022-11-15T09:53:29;99541.00;;;16.70
11424;BMP180;5768;51.476;7.210;2022-11-15T09:58:44;99528.00;;;17.00
11424;BMP180;5768;51.476;7.210;2022-11-15T10:03:49;99527.00;;;17.00
11424;BMP180;5768;51.476;7.210;2022-11-15T10:08:59;99512.00;;;16.90
11424;BMP180;5768;51.476;7.210;2022-11-15T10:14:14;99508.00;;;16.80
11424;BMP180;5768;51.476;7.210;2022-11-15T10:19:28;99497.00;;;16.80
11424;BMP180;5768;51.476;7.210;2022-11-15T10:24:44;99482.00;;;16.80
11424;BMP180;5768;51.476;7.210;2022-11-15T10:29:50;99476.00;;;16.80
11424;BMP180;5768;51.476;7.210;2022-11-15T10:34:52;99468.00;;;16.80
11424;BMP180;5768;51.476;7.210;2022-11-15T10:40:04;99468.00;;;16.90
11424;BMP180;5768;51.476;7.210;2022-11-15T10:45:29;99460.00;;;16.90
11424;BMP180;5768;51.476;7.210;2022-11-15T10:50:32;99452.00;;;17.00
11424;BMP180;5768;51.476;7.210;2022-11-15T10:55:46;99449.00;;;17.10
11424;BMP180;5768;51.476;7.210;2022-11-15T11:00:53;99444.00;;;17.20
11424;BMP180;5768;51.476;7.210;2022-11-15T11:06:07;99439.00;;;17.30
11424;BMP180;5768;51.476;7.210;2022-11-15T11:11:10;99440.00;;;17.40
11424;BMP180;5768;51.476;7.210;2022-11-15T11:16:42;99431.00;;;17.60
11424;BMP180;5768;51.476;7.210;2022-11-15T11:21:55;99422.00;;;17.60
11424;BMP180;5768;51.476;7.210;2022-11-15T11:27:18;99419.00;;;17.80
11424;BMP180;5768;51.476;7.210;2022-11-15T11:32:44;99414.00;;;18.10
11424;BMP180;5768;51.476;7.210;2022-11-15T11:37:52;99403.00;;;18.30
11424;BMP180;5768;51.476;7.210;2022-11-15T11:43:04;99390.00;;;18.60
11424;BMP180;5768;51.476;7.210;2022-11-15T11:48:14;99386.00;;;18.80
11424;BMP180;5768;51.476;7.210;2022-11-15T11:53:28;99387.00;;;18.90
11424;BMP180;5768;51.476;7.210;2022-11-15T11:58:42;99376.00;;;19.10
11424;BMP180;5768;51.476;7.210;2022-11-15T12:03:53;99384.00;;;19.20
11424;BMP180;5768;51.476;7.210;2022-11-15T12:09:06;99394.00;;;19.40
11424;BMP180;5768;51.476;7.210;2022-11-15T12:14:20;99392.00;;;19.60
11424;BMP180;5768;51.476;7.210;2022-11-15T12:19:28;99383.00;;;19.80
11424;BMP180;5768;51.476;7.210;2022-11-15T12:24:37;99389.00;;;19.90
11424;BMP180;5768;51.476;7.210;2022-11-15T12:29:44;99383.00;;;20.00
11424;BMP180;5768;51.476;7.210;2022-11-15T12:34:52;99386.00;;;20.10
11424;BMP180;5768;51.476;7.210;2022-11-15T12:40:31;99380.00;;;20.60
11424;BMP180;5768;51.476;7.210;2022-11-15T12:45:36;99365.00;;;21.10
11424;BMP180;5768;51.476;7.210;2022-11-15T12:50:57;99350.00;;;21.20
11424;BMP180;5768;51.476;7.210;2022-11-15T12:56:23;99332.00;;;21.40
11424;BMP180;5768;51.476;7.210;2022-11-15T13:02:17;99327.00;;;21.60
11424;BMP180;5768;51.476;7.210;2022-11-15T13:07:57;99313.00;;;22.00
11424;BMP180;5768;51.476;7.210;2022-11-15T13:13:02;99297.00;;;22.70
11424;BMP180;5768;51.476;7.210;2022-11-15T13:18:47;99304.00;;;23.20
11424;BMP180;5768;51.476;7.210;2022-11-15T13:23:57;99295.00;;;23.30
11424;BMP180;5768;51.476;7.210;2022-11-15T13:28:59;99283.00;;;23.70
11424;BMP180;5768;51.476;7.210;2022-11-15T13:34:16;99276.00;;;24.10
11424;BMP180;5768;51.476;7.210;2022-11-15T13:39:30;99277.00;;;23.70
11424;BMP180;5768;51.476;7.210;2022-11-15T13:44:33;99267.00;;;23.20
11424;BMP180;5768;51.476;7.210;2022-11-15T13:49:36;99266.00;;;22.70
11424;BMP180;5768;51.476;7.210;2022-11-15T13:54:44;99261.00;;;22.00
11424;BMP180;5768;51.476;7.210;2022-11-15T13:59:51;99251.00;;;21.40
11424;BMP180;5768;51.476;7.210;2022-11-15T14:04:58;99248.00;;;21.40
11424;BMP180;5768;51.476;7.210;2022-11-15T14:10:28;99237.00;;;21.40
11424;BMP180;5768;51.476;7.210;2022-11-15T14:15:33;99230.00;;;21.10
11424;BMP180;5768;51.476;7.210;2022-11-15T14:20:38;99212.00;;;20.70
11424;BMP180;5768;51.476;7.210;2022-11-15T14:25:53;99199.00;;;20.40
11424;BMP180;5768;51.476;7.210;2022-11-15T14:30:57;99195.00;;;20.10
11424;BMP180;5768;51.476;7.210;2022-11-15T14:36:04;99179.00;;;20.00
11424;BMP180;5768;51.476;7.210;2022-11-15T14:41:19;99165.00;;;20.00
11424;BMP180;5768;51.476;7.210;2022-11-15T14:46:21;99160.00;;;19.80
11424;BMP180;5768;51.476;7.210;2022-11-15T14:51:23;99156.00;;;19.60
11424;BMP180;5768;51.476;7.210;2022-11-15T14:56:28;99142.00;;;19.40
11424;BMP180;5768;51.476;7.210;2022-11-15T15:01:31;99149.00;;;19.30
11424;BMP180;5768;51.476;7.210;2022-11-15T15:06:33;99131.00;;;19.10
11424;BMP180;5768;51.476;7.210;2022-11-15T15:11:37;99127.00;;;19.00
11424;BMP180;5768;51.476;7.210;2022-11-15T15:16:39;99119.00;;;18.80
11424;BMP180;5768;51.476;7.210;2022-11-15T15:21:41;99110.00;;;18.60
11424;BMP180;5768;51.476;7.210;2022-11-15T15:26:44;99100.00;;;18.50
11424;BMP180;5768;51.476;7.210;2022-11-15T15:31:47;99094.00;;;18.30
11424;BMP180;5768;51.476;7.210;2022-11-15T15:36:49;99081.00;;;18.20
11424;BMP180;5768;51.476;7.210;2022-11-15T15:41:52;99085.00;;;18.10
11424;BMP180;5768;51.476;7.210;2022-11-15T15:46:55;99076.00;;;18.10
11424;BMP180;5768;51.476;7.210;2022-11-15T15:51:58;99067.00;;;18.00
11424;BMP180;5768;51.476;7.210;2022-11-15T15:57:02;99062.00;;;17.90
11424;BMP180;5768;51.476;7.210;2022-11-15T16:02:04;99056.00;;;17.90
11424;BMP180;5768;51.476;7.210;2022-11-15T16:07:15;99053.00;;;17.80
11424;BMP180;5768;51.476;7.210;2022-11-15T16:12:19;99029.00;;;17.70
11424;BMP180;5768;51.476;7.210;2022-11-15T16:17:24;99031.00;;;17.70
11424;BMP180;5768;51.476;7.210;2022-11-15T16:22:27;99022.00;;;17.70
11424;BMP180;5768;51.476;7.210;2022-11-15T16:27:31;99025.00;;;17.60
11424;BMP180;5768;51.476;7.210;2022-11-15T16:32:33;99030.00;;;17.60
11424;BMP180;5768;51.476;7.210;2022-11-15T16:37:35;99016.00;;;17.60
11424;BMP180;5768;51.476;7.210;2022-11-15T16:42:39;99016.00;;;17.50
11424;BMP180;5768;51.476;7.210;2022-11-15T16:47:41;99009.00;;;17.50
11424;BMP180;5768;51.476;7.210;2022-11-15T16:52:43;99000.00;;;17.50
11424;BMP180;5768;51.476;7.210;2022-11-15T16:57:47;99002.00;;;17.40
11424;BMP180;5768;51.476;7.210;2022-11-15T17:02:51;98996.00;;;17.40
11424;BMP180;5768;51.476;7.210;2022-11-15T17:07:54;98997.00;;;17.40
11424;BMP180;5768;51.476;7.210;2022-11-15T17:12:57;98989.00;;;17.40
11424;BMP180;5768;51.476;7.210;2022-11-15T17:17:59;98991.00;;;17.40
11424;BMP180;5768;51.476;7.210;2022-11-15T17:23:01;98989.00;;;17.40
11424;BMP180;5768;51.476;7.210;2022-11-15T17:28:05;98982.00;;;17.30
11424;BMP180;5768;51.476;7.210;2022-11-15T17:33:07;98981.00;;;17.30
11424;BMP180;5768;51.476;7.210;2022-11-15T17:38:09;98974.00;;;17.30
11424;BMP180;5768;51.476;7.210;2022-11-15T17:43:13;98976.00;;;17.30
11424;BMP180;5768;51.476;7.210;2022-11-15T17:48:16;98981.00;;;17.30
11424;BMP180;5768;51.476;7.210;2022-11-15T17:53:18;98981.00;;;17.30
11424;BMP180;5768;51.476;7.210;2022-11-15T17:58:22;98982.00;;;17.30
11424;BMP180;5768;51.476;7.210;2022-11-15T18:03:24;98980.00;;;17.30
11424;BMP180;5768;51.476;7.210;2022-11-15T18:08:26;98975.00;;;17.30
11424;BMP180;5768;51.476;7.210;2022-11-15T18:13:30;98977.00;;;17.30
11424;BMP180;5768;51.476;7.210;2022-11-15T18:18:34;98968.00;;;17.40
11424;BMP180;5768;51.476;7.210;2022-11-15T18:23:36;98970.00;;;17.40
11424;BMP180;5768;51.476;7.210;2022-11-15T18:28:43;98968.00;;;17.40
11424;BMP180;5768;51.476;7.210;2022-11-15T18:33:46;98962.00;;;17.40
11424;BMP180;5768;51.476;7.210;2022-11-15T18:38:53;98961.00;;;17.40
11424;BMP180;5768;51.476;7.210;2022-11-15T18:43:59;98951.00;;;17.40
11424;BMP180;5768;51.476;7.210;2022-11-15T18:49:02;98949.00;;;17.40
11424;BMP180;5768;51.476;7.210;2022-11-15T18:54:04;98939.00;;;17.40
11424;BMP180;5768;51.476;7.210;2022-11-15T18:59:08;98930.00;;;17.40
11424;BMP180;5768;51.476;7.210;2022-11-15T19:04:13;98939.00;;;17.40
11424;BMP180;5768;51.476;7.210;2022-11-15T19:09:18;98915.00;;;17.40
11424;BMP180;5768;51.476;7.210;2022-11-15T19:14:22;98922.00;;;17.40
11424;BMP180;5768;51.476;7.210;2022-11-15T19:19:27;98921.00;;;17.30
11424;BMP180;5768;51.476;7.210;2022-11-15T19:24:29;98909.00;;;17.30
11424;BMP180;5768;51.476;7.210;2022-11-15T19:29:32;98913.00;;;17.20
11424;BMP180;5768;51.476;7.210;2022-11-15T19:34:34;98910.00;;;17.20
11424;BMP180;5768;51.476;7.210;2022-11-15T19:39:37;98897.00;;;17.10
11424;BMP180;5768;51.476;7.210;2022-11-15T19:44:40;98901.00;;;17.10
11424;BMP180;5768;51.476;7.210;2022-11-15T19:49:43;98903.00;;;17.10
11424;BMP180;5768;51.476;7.210;2022-11-15T19:54:46;98895.00;;;17.10
11424;BMP180;5768;51.476;7.210;2022-11-15T19:59:50;98904.00;;;17.10
11424;BMP180;5768;51.476;7.210;2022-11-15T20:04:52;98908.00;;;17.10
11424;BMP180;5768;51.476;7.210;2022-11-15T20:09:54;98883.00;;;17.10
11424;BMP180;5768;51.476;7.210;2022-11-15T20:14:57;98884.00;;;17.00
11424;BMP180;5768;51.476;7.210;2022-11-15T20:20:00;98877.00;;;17.10
11424;BMP180;5768;51.476;7.210;2022-11-15T20:25:03;98886.00;;;17.00
11424;BMP180;5768;51.476;7.210;2022-11-15T20:30:09;98886.00;;;17.00
11424;BMP180;5768;51.476;7.210;2022-11-15T20:35:12;98880.00;;;17.00
11424;BMP180;5768;51.476;7.210;2022-11-15T20:40:14;98879.00;;;17.00
11424;BMP180;5768;51.476;7.210;2022-11-15T20:45:18;98873.00;;;17.00
11424;BMP180;5768;51.476;7.210;2022-11-15T20:50:20;98857.00;;;17.00
11424;BMP180;5768;51.476;7.210;2022-11-15T20:55:22;98867.00;;;17.00
11424;BMP180;5768;51.476;7.210;2022-11-15T21:00:26;98855.00;;;17.00
11424;BMP180;5768;51.476;7.210;2022-11-15T21:05:29;98848.00;;;16.90
11424;BMP180;5768;51.476;7.210;2022-11-15T21:10:31;98847.00;;;16.90
11424;BMP180;5768;51.476;7.210;2022-11-15T21:15:55;98835.00;;;16.90
11424;BMP180;5768;51.476;7.210;2022-11-15T21:21:02;98831.00;;;16.80
11424;BMP180;5768;51.476;7.210;2022-11-15T21:26:05;98825.00;;;16.80
11424;BMP180;5768;51.476;7.210;2022-11-15T21:31:09;98826.00;;;16.80
11424;BMP180;5768;51.476;7.210;2022-11-15T21:36:11;98818.00;;;16.80
11424;BMP180;5768;51.476;7.210;2022-11-15T21:41:13;98820.00;;;16.80
11424;BMP180;5768;51.476;7.210;2022-11-15T21:46:17;98820.00;;;16.80
11424;BMP180;5768;51.476;7.210;2022-11-15T21:51:19;98803.00;;;16.80
11424;BMP180;5768;51.476;7.210;2022-11-15T21:56:22;98816.00;;;16.80
11424;BMP180;5768;51.476;7.210;2022-11-15T22:01:27;98798.00;;;16.80
11424;BMP180;5768;51.476;7.210;2022-11-15T22:06:47;98791.00;;;16.80
11424;BMP180;5768;51.476;7.210;2022-11-15T22:11:49;98793.00;;;16.80
11424;BMP180;5768;51.476;7.210;2022-11-15T22:16:56;98791.00;;;16.70
11424;BMP180;5768;51.476;7.210;2022-11-15T22:21:58;98785.00;;;16.70
11424;BMP180;5768;51.476;7.210;2022-11-15T22:27:00;98778.00;;;16.70
11424;BMP180;5768;51.476;7.210;2022-11-15T22:32:04;98767.00;;;16.70
11424;BMP180;5768;51.476;7.210;2022-11-15T22:37:06;98762.00;;;16.70
11424;BMP180;5768;51.476;7.210;2022-11-15T22:42:08;98756.00;;;16.60
11424;BMP180;5768;51.476;7.210;2022-11-15T22:47:12;98749.00;;;16.60
11424;BMP180;5768;51.476;7.210;2022-11-15T22:52:14;98744.00;;;16.60
11424;BMP180;5768;51.476;7.210;2022-11-15T22:57:16;98745.00;;;16.60
11424;BMP180;5768;51.476;7.210;2022-11-15T23:02:20;98739.00;;;16.60
11424;BMP180;5768;51.476;7.210;2022-11-15T23:07:23;98740.00;;;16.60
11424;BMP180;5768;51.476;7.210;2022-11-15T23:12:26;98726.00;;;16.60
11424;BMP180;5768;51.476;7.210;2022-11-15T23:17:48;98717.00;;;16.60
11424;BMP180;5768;51.476;7.210;2022-11-15T23:22:50;98710.00;;;16.60
11424;BMP180;5768;51.476;7.210;2022-11-15T23:27:52;98708.00;;;16.60
11424;BMP180;5768;51.476;7.210;2022-11-15T23:32:56;98713.00;;;16.50
11424;BMP180;5768;51.476;7.210;2022-11-15T23:38:15;98711.00;;;16.50
11424;BMP180;5768;51.476;7.210;2022-11-15T23:43:18;98708.00;;;16.50
11424;BMP180;5768;51.476;7.210;2022-11-15T23:48:22;98707.00;;;16.50
11424;BMP180;5768;51.476;7.210;2022-11-15T23:53:25;98701.00;;;16.50
11424;BMP180;5768;51.476;7.210;2022-11-15T23:58:27;98696.00;;;16.50
